Time;durP1;ratioP1;P1;durP2;ratioP2;P2;SDS_P1;SDS_P2;PMS_P1;PMS_P2;Temp;Humidity;BMP_temperature;BMP_pressure;BME280_temperature;BME280_humidity;BME280_pressure;Samples;Min_cycle;Max_cycle;Signal;HPM_P1;HPM_P2
2021/10/31 00:01:31;;;;;;;17.95;16.05;;;9.80;99.90;;;;;;5003228;28;20487;-77
2021/10/31 00:03:58;;;;;;;17.48;15.63;;;9.80;99.90;;;;;;5002697;28;20242;-77
2021/10/31 00:06:26;;;;;;;17.45;15.57;;;9.80;99.90;;;;;;4996690;28;20228;-77
2021/10/31 00:08:53;;;;;;;16.45;14.63;;;9.80;99.90;;;;;;5001304;28;20599;-77
2021/10/31 00:11:20;;;;;;;15.85;14.15;;;9.80;99.90;;;;;;5004042;28;20231;-78
2021/10/31 00:13:49;;;;;;;17.38;15.30;;;9.90;99.90;;;;;;5003705;28;20247;-77
2021/10/31 00:16:16;;;;;;;16.98;15.18;;;9.90;99.90;;;;;;5003532;28;20221;-77
2021/10/31 00:18:43;;;;;;;19.25;15.07;;;9.90;99.90;;;;;;5004902;28;20642;-77
2021/10/31 00:21:11;;;;;;;16.88;15.07;;;9.90;99.90;;;;;;5003425;28;20228;-78
2021/10/31 00:23:38;;;;;;;18.45;15.75;;;9.90;99.90;;;;;;5001594;28;20235;-77
2021/10/31 00:26:05;;;;;;;17.35;15.07;;;9.90;99.90;;;;;;5007242;28;20231;-77
2021/10/31 00:28:32;;;;;;;19.10;16.58;;;9.90;99.90;;;;;;5004777;28;20590;-77
2021/10/31 00:31:01;;;;;;;18.10;16.20;;;9.90;99.90;;;;;;5005236;28;20667;-77
2021/10/31 00:33:28;;;;;;;19.27;16.50;;;9.80;99.90;;;;;;5001458;28;20220;-78
2021/10/31 00:35:55;;;;;;;18.77;16.85;;;9.80;99.90;;;;;;5005651;28;20614;-78
2021/10/31 00:38:22;;;;;;;17.73;15.82;;;9.80;99.90;;;;;;5003998;28;20232;-78
2021/10/31 00:40:50;;;;;;;17.90;16.00;;;9.80;99.90;;;;;;5007089;28;20766;-78
2021/10/31 00:43:17;;;;;;;18.38;15.90;;;9.80;99.90;;;;;;5003164;28;20226;-78
2021/10/31 00:45:44;;;;;;;19.90;17.30;;;9.80;99.90;;;;;;5004337;28;20228;-78
2021/10/31 00:48:13;;;;;;;19.02;16.77;;;9.70;99.90;;;;;;5002096;28;20291;-78
2021/10/31 00:50:40;;;;;;;18.05;16.15;;;9.70;99.90;;;;;;5004787;28;20215;-78
2021/10/31 00:53:08;;;;;;;17.50;15.38;;;9.70;99.90;;;;;;5004656;28;20239;-77
2021/10/31 00:55:36;;;;;;;18.70;16.52;;;9.70;99.90;;;;;;5004590;28;20219;-77
2021/10/31 00:58:03;;;;;;;19.38;17.38;;;9.70;99.90;;;;;;5005110;28;20224;-78
2021/10/31 01:00:30;;;;;;;19.95;16.75;;;9.80;99.90;;;;;;5002932;28;20229;-78
2021/10/31 01:02:57;;;;;;;18.27;16.38;;;9.80;99.90;;;;;;5004070;28;20224;-77
2021/10/31 01:05:32;;;;;;;17.23;15.43;;;9.70;99.90;;;;;;5002491;28;20239;-77
2021/10/31 01:08:14;;;;;;;16.83;14.93;;;9.70;99.90;;;;;;5001199;28;20220;-77
2021/10/31 01:10:58;;;;;;;15.23;13.63;;;9.70;99.90;;;;;;5005460;28;20646;-77
2021/10/31 01:13:42;;;;;;;17.77;15.60;;;9.70;99.90;;;;;;4998126;28;20216;-77
2021/10/31 01:16:24;;;;;;;15.30;13.70;;;9.70;99.90;;;;;;5004925;28;20298;-77
2021/10/31 01:19:24;;;;;;;16.48;14.73;;;9.70;99.90;;;;;;5003897;28;20216;-78
2021/10/31 01:22:04;;;;;;;17.02;14.38;;;9.70;99.90;;;;;;5000129;28;20231;-78
2021/10/31 01:25:02;;;;;;;16.77;14.32;;;9.70;99.90;;;;;;5008873;28;20220;-77
2021/10/31 01:27:39;;;;;;;16.92;14.50;;;9.80;99.90;;;;;;5001600;28;20224;-78
2021/10/31 01:30:13;;;;;;;17.02;15.18;;;9.80;99.90;;;;;;5003625;28;20226;-77
2021/10/31 01:32:57;;;;;;;17.25;14.85;;;9.80;99.90;;;;;;5007055;28;20225;-78
2021/10/31 01:35:37;;;;;;;18.65;15.38;;;9.80;99.90;;;;;;5001404;28;20228;-77
2021/10/31 01:38:15;;;;;;;16.15;13.98;;;9.80;99.90;;;;;;5002564;28;20323;-77
2021/10/31 01:40:47;;;;;;;16.27;14.27;;;9.80;99.90;;;;;;5006275;28;20698;-76
2021/10/31 01:43:26;;;;;;;19.10;16.05;;;9.70;99.90;;;;;;4999506;28;20217;-78
2021/10/31 01:46:01;;;;;;;17.73;15.18;;;9.70;99.90;;;;;;5002255;28;20546;-76
2021/10/31 01:48:35;;;;;;;16.45;14.68;;;9.70;99.90;;;;;;5005480;28;20450;-78
2021/10/31 01:51:09;;;;;;;16.13;13.98;;;9.60;99.90;;;;;;4999489;28;20255;-77
2021/10/31 01:53:45;;;;;;;15.90;14.23;;;9.60;99.90;;;;;;5001532;28;20222;-77
2021/10/31 01:56:15;;;;;;;16.08;14.32;;;9.60;99.90;;;;;;5000166;28;20701;-78
2021/10/31 01:58:46;;;;;;;15.98;13.00;;;9.60;99.90;;;;;;5003649;28;20683;-77
2021/10/31 02:01:16;;;;;;;13.95;12.43;;;9.60;99.90;;;;;;5002203;28;20228;-78
2021/10/31 02:03:44;;;;;;;15.43;13.32;;;9.60;99.90;;;;;;5004873;28;20306;-78
2021/10/31 02:06:12;;;;;;;14.32;12.82;;;9.50;99.90;;;;;;5009007;28;20225;-77
2021/10/31 02:08:45;;;;;;;13.35;11.68;;;9.50;99.90;;;;;;5002513;28;20220;-77
2021/10/31 02:11:13;;;;;;;14.25;12.63;;;9.60;99.90;;;;;;5005428;28;20229;-77
2021/10/31 02:13:41;;;;;;;12.55;11.13;;;9.60;99.90;;;;;;5010092;28;20224;-77
2021/10/31 02:16:09;;;;;;;14.05;12.27;;;9.60;99.90;;;;;;5001647;28;20224;-78
2021/10/31 02:18:37;;;;;;;17.90;13.38;;;9.60;99.90;;;;;;4998854;28;20231;-77
2021/10/31 02:21:07;;;;;;;16.50;13.80;;;9.60;99.90;;;;;;4999533;28;20232;-77
2021/10/31 02:23:36;;;;;;;15.57;13.95;;;9.60;99.90;;;;;;5005338;28;20521;-78
2021/10/31 02:26:03;;;;;;;15.68;13.95;;;9.60;99.90;;;;;;5005463;28;20232;-77
2021/10/31 02:28:30;;;;;;;15.30;13.65;;;9.50;99.90;;;;;;5007366;28;20238;-76
2021/10/31 02:30:57;;;;;;;13.13;11.80;;;9.50;99.90;;;;;;5005291;28;20220;-78
2021/10/31 02:33:24;;;;;;;12.70;11.40;;;9.50;99.90;;;;;;5010229;28;20246;-77
2021/10/31 02:35:51;;;;;;;14.77;13.20;;;9.40;99.90;;;;;;5003610;28;20231;-78
2021/10/31 02:38:19;;;;;;;12.52;11.30;;;9.40;99.90;;;;;;5005509;28;20228;-77
2021/10/31 02:40:47;;;;;;;12.80;11.50;;;9.40;99.90;;;;;;5000137;28;20599;-77
2021/10/31 02:43:15;;;;;;;12.52;11.23;;;9.40;99.90;;;;;;5000107;23;21446;-68
2021/10/31 02:45:42;;;;;;;14.63;13.02;;;9.40;99.90;;;;;;4977282;28;20217;-66
2021/10/31 02:48:12;;;;;;;15.15;13.02;;;9.40;99.90;;;;;;4981009;28;20223;-66
2021/10/31 02:50:42;;;;;;;14.10;12.40;;;9.40;99.90;;;;;;4981113;28;20250;-66
2021/10/31 02:53:21;;;;;;;14.25;11.93;;;9.40;99.90;;;;;;4967556;28;20221;-66
2021/10/31 02:55:57;;;;;;;16.08;13.63;;;9.40;99.90;;;;;;4960812;28;20228;-66
2021/10/31 02:58:32;;;;;;;14.68;13.13;;;9.40;99.90;;;;;;4960897;28;20225;-65
2021/10/31 03:01:02;;;;;;;13.35;11.85;;;9.40;99.90;;;;;;4960876;28;20642;-65
2021/10/31 03:03:30;;;;;;;13.55;12.15;;;9.40;99.90;;;;;;4962390;28;20232;-65
2021/10/31 03:05:58;;;;;;;12.38;11.07;;;9.40;99.90;;;;;;4960267;28;20256;-66
2021/10/31 03:08:26;;;;;;;16.42;13.82;;;9.50;99.90;;;;;;4962498;28;20272;-66
2021/10/31 03:10:57;;;;;;;14.73;13.05;;;9.50;99.90;;;;;;4967629;28;20291;-66
2021/10/31 03:13:26;;;;;;;14.80;12.75;;;9.50;99.90;;;;;;4964453;28;20771;-65
2021/10/31 03:15:54;;;;;;;16.38;14.13;;;9.50;99.90;;;;;;4966549;28;20739;-65
2021/10/31 03:18:21;;;;;;;15.70;13.23;;;9.50;99.90;;;;;;4959719;28;20232;-67
2021/10/31 03:20:48;;;;;;;14.35;12.88;;;9.40;99.90;;;;;;4974306;28;20228;-66
2021/10/31 03:23:16;;;;;;;13.88;12.38;;;9.50;99.90;;;;;;4964360;28;20585;-67
2021/10/31 03:25:43;;;;;;;13.52;12.05;;;9.50;99.90;;;;;;4963862;28;20225;-67
2021/10/31 03:28:12;;;;;;;15.00;11.93;;;9.50;99.90;;;;;;4961016;28;20238;-65
2021/10/31 03:30:39;;;;;;;12.50;11.20;;;9.40;99.90;;;;;;4964334;28;20672;-65
2021/10/31 03:33:07;;;;;;;13.82;11.68;;;9.40;99.90;;;;;;4960144;28;20229;-65
2021/10/31 03:35:34;;;;;;;13.30;11.73;;;9.40;99.90;;;;;;4961391;28;20291;-67
2021/10/31 03:38:01;;;;;;;13.45;12.05;;;9.50;99.90;;;;;;4968375;28;20908;-66
2021/10/31 03:40:28;;;;;;;12.70;11.32;;;9.40;99.90;;;;;;4968083;28;20224;-66
2021/10/31 03:42:55;;;;;;;13.73;11.57;;;9.40;99.90;;;;;;4964580;28;20232;-65
2021/10/31 03:45:24;;;;;;;13.38;11.98;;;9.40;99.90;;;;;;4967570;28;20232;-66
2021/10/31 03:47:52;;;;;;;13.93;12.52;;;9.40;99.90;;;;;;4961589;28;20225;-66
2021/10/31 03:50:21;;;;;;;14.57;12.07;;;9.40;99.90;;;;;;4969663;28;20237;-66
2021/10/31 03:52:50;;;;;;;14.43;12.93;;;9.30;99.90;;;;;;4965301;28;20275;-66
2021/10/31 03:55:18;;;;;;;13.55;12.15;;;9.30;99.90;;;;;;4971678;28;20588;-67
2021/10/31 03:57:45;;;;;;;13.35;11.95;;;9.30;99.90;;;;;;4972923;28;20225;-66
2021/10/31 04:00:14;;;;;;;12.95;11.60;;;9.30;99.90;;;;;;4972816;28;20229;-66
2021/10/31 04:02:43;;;;;;;12.85;11.18;;;9.30;99.90;;;;;;4964371;28;20312;-66
2021/10/31 04:05:12;;;;;;;12.63;11.02;;;9.30;99.90;;;;;;4967106;28;20681;-65
2021/10/31 04:07:39;;;;;;;12.70;11.40;;;9.30;99.90;;;;;;4963261;28;20237;-65
2021/10/31 04:10:07;;;;;;;12.70;10.45;;;9.30;99.90;;;;;;4963073;28;20601;-65
2021/10/31 04:12:35;;;;;;;12.70;10.70;;;9.30;99.90;;;;;;4965621;28;20257;-65
2021/10/31 04:15:02;;;;;;;14.45;11.85;;;9.30;99.90;;;;;;4960056;28;20217;-65
2021/10/31 04:17:29;;;;;;;13.60;11.50;;;9.40;99.90;;;;;;4960830;28;20229;-65
2021/10/31 04:19:58;;;;;;;12.65;11.35;;;9.30;99.90;;;;;;4969193;28;20224;-65
2021/10/31 04:22:25;;;;;;;13.45;10.98;;;9.30;99.90;;;;;;4968736;28;20230;-67
2021/10/31 04:24:52;;;;;;;12.50;11.20;;;9.40;99.90;;;;;;4968410;28;20224;-65
2021/10/31 04:27:19;;;;;;;12.00;10.75;;;9.30;99.90;;;;;;4969901;28;20220;-66
2021/10/31 04:29:46;;;;;;;12.07;10.85;;;9.30;99.90;;;;;;4968221;28;20221;-66
2021/10/31 04:32:14;;;;;;;12.38;11.07;;;9.30;99.90;;;;;;4962172;28;20240;-66
2021/10/31 04:34:41;;;;;;;12.88;11.27;;;9.30;99.90;;;;;;4970059;28;20229;-66
2021/10/31 04:37:09;;;;;;;13.18;10.63;;;9.20;99.90;;;;;;4958116;28;20222;-66
2021/10/31 04:39:36;;;;;;;11.68;10.48;;;9.20;99.90;;;;;;4966918;28;20238;-66
2021/10/31 04:42:05;;;;;;;12.45;11.15;;;9.20;99.90;;;;;;4969844;28;20237;-66
2021/10/31 04:44:33;;;;;;;14.45;12.02;;;9.20;99.90;;;;;;4965488;28;20316;-66
2021/10/31 04:47:01;;;;;;;12.82;10.75;;;9.20;99.90;;;;;;4970829;28;20217;-66
2021/10/31 04:49:29;;;;;;;13.82;10.98;;;9.20;99.90;;;;;;4962062;28;20225;-66
2021/10/31 04:51:56;;;;;;;13.90;11.85;;;9.20;99.90;;;;;;4968891;28;20221;-67
2021/10/31 04:54:24;;;;;;;13.23;11.80;;;9.20;99.90;;;;;;4966286;28;20229;-66
2021/10/31 04:56:52;;;;;;;12.30;10.90;;;9.20;99.90;;;;;;4963988;28;20232;-67
2021/10/31 04:59:19;;;;;;;11.07;9.98;;;9.20;99.90;;;;;;4962602;28;20262;-67
2021/10/31 05:01:46;;;;;;;11.25;9.77;;;9.20;99.90;;;;;;4962687;28;20349;-67
2021/10/31 05:04:14;;;;;;;12.07;10.75;;;9.20;99.90;;;;;;4968704;28;20701;-67
2021/10/31 05:06:41;;;;;;;14.27;11.98;;;9.20;99.90;;;;;;4964001;28;20240;-66
2021/10/31 05:09:08;;;;;;;11.77;10.57;;;9.20;99.90;;;;;;4967728;28;20310;-66
2021/10/31 05:11:36;;;;;;;11.77;10.57;;;9.20;99.90;;;;;;4963264;28;20236;-66
2021/10/31 05:14:03;;;;;;;12.23;10.93;;;9.10;99.90;;;;;;4965048;28;20227;-66
2021/10/31 05:16:30;;;;;;;13.65;11.15;;;9.10;99.90;;;;;;4964320;28;20221;-66
2021/10/31 05:18:58;;;;;;;12.68;11.32;;;9.10;99.90;;;;;;4961217;28;20230;-66
2021/10/31 05:21:25;;;;;;;12.30;10.70;;;9.10;99.90;;;;;;4968493;28;20610;-66
2021/10/31 05:23:52;;;;;;;13.82;12.15;;;9.10;99.90;;;;;;4965392;28;20253;-66
2021/10/31 05:26:19;;;;;;;11.70;10.55;;;9.10;99.90;;;;;;4975996;28;20240;-66
2021/10/31 05:28:47;;;;;;;12.75;11.32;;;9.10;99.90;;;;;;4973200;28;20252;-66
2021/10/31 05:31:15;;;;;;;13.00;11.65;;;9.10;99.90;;;;;;4967358;28;20218;-67
2021/10/31 05:33:42;;;;;;;12.52;10.48;;;9.10;99.90;;;;;;4967102;28;20229;-65
2021/10/31 05:36:09;;;;;;;12.07;10.80;;;9.10;99.90;;;;;;4976182;28;20308;-65
2021/10/31 05:38:36;;;;;;;11.77;10.50;;;9.10;99.90;;;;;;4961646;28;20229;-65
2021/10/31 05:41:04;;;;;;;12.50;11.15;;;9.20;99.90;;;;;;4967139;28;20716;-66
2021/10/31 05:43:31;;;;;;;13.25;11.82;;;9.20;99.90;;;;;;4977341;28;20225;-65
2021/10/31 05:46:00;;;;;;;11.98;10.77;;;9.20;99.90;;;;;;4960040;28;20247;-68
2021/10/31 05:48:27;;;;;;;13.40;11.10;;;9.20;99.90;;;;;;4966313;28;20222;-66
2021/10/31 05:50:55;;;;;;;11.60;10.02;;;9.10;99.90;;;;;;4970912;28;20221;-65
2021/10/31 05:53:22;;;;;;;10.52;9.52;;;9.10;99.90;;;;;;4961822;28;20240;-65
2021/10/31 05:55:49;;;;;;;11.98;10.73;;;9.10;99.90;;;;;;4964263;28;20701;-65
2021/10/31 05:58:16;;;;;;;12.63;10.57;;;9.10;99.90;;;;;;4964673;28;20233;-67
2021/10/31 06:00:43;;;;;;;12.88;11.32;;;9.10;99.90;;;;;;4966752;28;20228;-66
2021/10/31 06:03:12;;;;;;;12.95;11.55;;;9.10;99.90;;;;;;4961765;28;20229;-65
2021/10/31 06:05:43;;;;;;;14.10;11.88;;;9.10;99.90;;;;;;4977453;28;20220;-66
2021/10/31 06:08:14;;;;;;;11.77;10.52;;;9.10;99.90;;;;;;4964531;28;20221;-66
2021/10/31 06:10:41;;;;;;;12.38;10.93;;;9.10;99.90;;;;;;4961782;28;20217;-66
2021/10/31 06:13:09;;;;;;;11.77;10.57;;;9.10;99.90;;;;;;4964864;28;20237;-65
2021/10/31 06:15:36;;;;;;;12.57;11.38;;;9.00;99.90;;;;;;4957893;28;20233;-66
2021/10/31 06:18:03;;;;;;;12.35;10.80;;;9.00;99.90;;;;;;4966881;28;20236;-66
2021/10/31 06:20:32;;;;;;;11.73;10.50;;;9.00;99.90;;;;;;4967204;28;20228;-66
2021/10/31 06:22:59;;;;;;;11.57;10.38;;;9.00;99.90;;;;;;4959052;28;20222;-65
2021/10/31 06:25:26;;;;;;;12.23;10.75;;;9.00;99.90;;;;;;4959835;28;20233;-66
2021/10/31 06:27:53;;;;;;;13.27;11.90;;;9.00;99.90;;;;;;4956911;28;20225;-66
2021/10/31 06:30:20;;;;;;;12.02;10.82;;;9.00;99.90;;;;;;4961165;28;20230;-66
2021/10/31 06:32:49;;;;;;;11.38;10.23;;;9.00;99.90;;;;;;4959927;28;20625;-66
2021/10/31 06:35:16;;;;;;;11.63;10.48;;;9.00;99.90;;;;;;4962874;28;20236;-67
2021/10/31 06:37:45;;;;;;;11.02;9.90;;;9.00;99.90;;;;;;4957222;28;20735;-66
2021/10/31 06:40:12;;;;;;;12.02;10.73;;;9.00;99.90;;;;;;4960841;28;20230;-66
2021/10/31 06:42:40;;;;;;;13.23;11.80;;;9.00;99.90;;;;;;4957367;28;20224;-66
2021/10/31 06:45:08;;;;;;;12.18;10.88;;;9.10;99.90;;;;;;4960216;28;20225;-65
2021/10/31 06:47:35;;;;;;;11.23;9.25;;;9.10;99.90;;;;;;4960532;28;20221;-66
2021/10/31 06:50:03;;;;;;;10.40;9.40;;;9.10;99.90;;;;;;4962328;28;20295;-66
2021/10/31 06:52:30;;;;;;;12.48;10.57;;;9.10;99.90;;;;;;4964213;28;20261;-67
2021/10/31 06:54:59;;;;;;;11.00;9.90;;;9.10;99.90;;;;;;4959915;28;20218;-65
2021/10/31 06:57:26;;;;;;;10.65;9.55;;;9.10;99.90;;;;;;4959933;28;20570;-65
2021/10/31 06:59:53;;;;;;;11.65;10.45;;;9.20;99.90;;;;;;4961704;28;20218;-65
2021/10/31 07:02:20;;;;;;;11.32;10.23;;;9.20;99.90;;;;;;4961108;28;20230;-66
2021/10/31 07:04:47;;;;;;;12.18;10.60;;;9.20;99.90;;;;;;4960869;28;20324;-66
2021/10/31 07:07:15;;;;;;;12.68;11.38;;;9.20;99.90;;;;;;4959255;28;20225;-66
2021/10/31 07:09:42;;;;;;;13.65;11.15;;;9.20;99.90;;;;;;4961817;28;20575;-67
2021/10/31 07:12:11;;;;;;;11.68;10.45;;;9.20;99.90;;;;;;4963170;28;20317;-66
2021/10/31 07:14:38;;;;;;;11.32;10.02;;;9.20;99.90;;;;;;4963852;28;20229;-66
2021/10/31 07:17:05;;;;;;;11.85;10.02;;;9.20;99.90;;;;;;4959287;28;20230;-65
2021/10/31 07:19:32;;;;;;;12.30;10.27;;;9.20;99.90;;;;;;4959192;28;20244;-66
2021/10/31 07:22:00;;;;;;;11.25;9.80;;;9.30;99.90;;;;;;4961490;28;20238;-65
2021/10/31 07:24:28;;;;;;;9.30;8.20;;;9.30;99.90;;;;;;4976178;28;20231;-65
2021/10/31 07:26:55;;;;;;;9.77;8.75;;;9.40;99.90;;;;;;4964953;28;20225;-66
2021/10/31 07:29:23;;;;;;;9.55;8.65;;;9.50;99.90;;;;;;4958971;28;20230;-66
2021/10/31 07:31:51;;;;;;;8.93;8.02;;;9.60;99.90;;;;;;4966381;28;20230;-66
2021/10/31 07:34:24;;;;;;;10.02;8.70;;;9.60;99.90;;;;;;4959971;28;20272;-66
2021/10/31 07:36:51;;;;;;;9.43;8.40;;;9.70;99.90;;;;;;4960859;28;20229;-65
2021/10/31 07:39:18;;;;;;;9.18;8.02;;;9.70;99.90;;;;;;4960738;28;20230;-65
2021/10/31 07:41:46;;;;;;;8.32;7.45;;;9.70;99.90;;;;;;4963509;28;20617;-65
2021/10/31 07:44:13;;;;;;;9.10;8.20;;;9.80;99.90;;;;;;4964090;28;20233;-66
2021/10/31 07:46:41;;;;;;;8.75;7.85;;;9.90;99.90;;;;;;4966162;28;20228;-67
2021/10/31 07:49:09;;;;;;;9.20;8.30;;;9.90;99.90;;;;;;4963775;28;20226;-66
2021/10/31 07:51:36;;;;;;;11.60;10.40;;;10.00;99.90;;;;;;4963453;28;20646;-66
2021/10/31 07:54:04;;;;;;;9.95;8.95;;;10.10;99.90;;;;;;4958472;28;20229;-65
2021/10/31 07:56:34;;;;;;;11.15;10.05;;;10.10;99.90;;;;;;4956788;28;20221;-65
2021/10/31 07:59:01;;;;;;;12.00;10.43;;;10.10;99.90;;;;;;4961257;28;20277;-66
2021/10/31 08:01:28;;;;;;;13.35;12.05;;;10.10;99.90;;;;;;4967859;28;20229;-67
2021/10/31 08:03:57;;;;;;;13.35;10.35;;;10.10;99.90;;;;;;4956884;28;20732;-65
2021/10/31 08:06:25;;;;;;;11.73;10.52;;;10.10;99.90;;;;;;4960047;28;20217;-66
2021/10/31 08:08:52;;;;;;;11.63;10.43;;;10.20;99.90;;;;;;4957660;28;20236;-67
2021/10/31 08:11:19;;;;;;;10.77;9.75;;;10.20;99.90;;;;;;4960925;28;20232;-66
2021/10/31 08:13:46;;;;;;;9.50;8.60;;;10.20;99.90;;;;;;4958160;28;20228;-66
2021/10/31 08:16:13;;;;;;;10.52;9.45;;;10.20;99.90;;;;;;4963679;28;20221;-66
2021/10/31 08:18:41;;;;;;;9.90;8.60;;;10.20;99.90;;;;;;4959130;28;20221;-68
2021/10/31 08:21:09;;;;;;;10.43;9.43;;;10.30;99.90;;;;;;4954798;28;20222;-66
2021/10/31 08:23:38;;;;;;;9.93;9.00;;;10.30;99.90;;;;;;4963683;28;20236;-66
2021/10/31 08:26:05;;;;;;;8.98;8.18;;;10.40;99.90;;;;;;4965333;28;20230;-67
2021/10/31 08:28:36;;;;;;;10.77;9.35;;;10.30;99.90;;;;;;4961540;28;20228;-66
2021/10/31 08:31:04;;;;;;;11.18;9.07;;;10.30;99.90;;;;;;4960256;28;20304;-67
2021/10/31 08:33:33;;;;;;;9.45;8.48;;;10.20;99.90;;;;;;4968361;28;20221;-67
2021/10/31 08:36:00;;;;;;;8.63;7.72;;;10.20;99.90;;;;;;4965487;28;20213;-66
2021/10/31 08:38:29;;;;;;;9.32;8.43;;;10.20;99.90;;;;;;4964180;28;20217;-67
2021/10/31 08:40:57;;;;;;;9.30;7.82;;;10.20;99.90;;;;;;4961197;28;20225;-66
2021/10/31 08:45:54;;;;;;;9.05;8.15;;;10.00;99.90;;;;;;4996255;28;20270;-79
2021/10/31 08:48:22;;;;;;;9.77;8.48;;;10.00;99.90;;;;;;5007241;28;20307;-78
2021/10/31 08:50:49;;;;;;;8.80;8.00;;;10.00;99.90;;;;;;5007343;28;20227;-78
2021/10/31 08:53:17;;;;;;;8.02;7.32;;;10.00;99.90;;;;;;5005885;28;20239;-79
2021/10/31 08:55:46;;;;;;;8.60;7.75;;;10.10;99.90;;;;;;5003099;28;20640;-79
2021/10/31 08:58:14;;;;;;;8.63;7.72;;;10.10;99.90;;;;;;5004145;28;20234;-79
2021/10/31 09:00:43;;;;;;;7.80;7.00;;;10.30;99.90;;;;;;5007261;28;20216;-79
2021/10/31 09:03:10;;;;;;;7.90;7.10;;;10.40;99.90;;;;;;5004061;28;20235;-79
2021/10/31 09:05:38;;;;;;;9.07;8.05;;;10.50;99.90;;;;;;5007671;28;20712;-78
2021/10/31 09:08:06;;;;;;;7.82;7.03;;;10.60;99.90;;;;;;5005932;28;20733;-78
2021/10/31 09:10:34;;;;;;;7.63;6.93;;;10.70;99.90;;;;;;5002076;28;20232;-79
2021/10/31 09:13:04;;;;;;;7.82;7.13;;;10.80;99.90;;;;;;5006352;28;20307;-80
2021/10/31 09:15:31;;;;;;;7.72;6.97;;;10.90;99.90;;;;;;4997299;28;20231;-79
2021/10/31 09:17:58;;;;;;;8.75;7.95;;;11.00;99.90;;;;;;5005581;28;20212;-79
2021/10/31 09:20:26;;;;;;;9.32;8.43;;;11.10;99.90;;;;;;5001247;28;20216;-78
2021/10/31 09:22:54;;;;;;;8.98;8.13;;;11.20;99.90;;;;;;5002834;28;20230;-79
2021/10/31 09:25:23;;;;;;;9.35;8.45;;;11.20;99.90;;;;;;5000727;28;20224;-79
2021/10/31 09:27:50;;;;;;;10.70;8.45;;;11.20;99.90;;;;;;4999009;28;20227;-80
2021/10/31 09:30:19;;;;;;;9.32;8.40;;;11.30;99.90;;;;;;5006072;28;20307;-78
2021/10/31 09:32:49;;;;;;;10.23;8.68;;;11.40;99.90;;;;;;4999543;28;20719;-79
2021/10/31 09:35:18;;;;;;;9.25;8.35;;;11.60;99.90;;;;;;4999019;28;20311;-79
2021/10/31 09:37:46;;;;;;;8.85;7.97;;;11.70;99.90;;;;;;4999711;28;20363;-78
2021/10/31 09:40:15;;;;;;;9.88;8.90;;;11.80;99.90;;;;;;5000419;28;20692;-79
2021/10/31 09:42:43;;;;;;;8.60;7.80;;;11.90;99.90;;;;;;4998984;28;20217;-79
2021/10/31 09:45:11;;;;;;;9.10;8.07;;;11.80;99.90;;;;;;5001200;28;20238;-79
2021/10/31 09:47:41;;;;;;;8.27;7.47;;;11.80;99.90;;;;;;4991568;28;20287;-79
2021/10/31 09:50:09;;;;;;;8.93;8.05;;;11.70;99.90;;;;;;4958244;28;20231;-79
2021/10/31 09:52:37;;;;;;;8.23;7.43;;;11.70;99.90;;;;;;5004376;28;20778;-78
2021/10/31 09:55:05;;;;;;;8.00;7.30;;;11.80;99.90;;;;;;5006111;28;20228;-79
2021/10/31 09:57:33;;;;;;;9.48;7.72;;;11.80;99.90;;;;;;5006730;28;20435;-79
2021/10/31 10:00:01;;;;;;;9.07;7.82;;;12.00;99.90;;;;;;5006806;28;20223;-79
2021/10/31 10:02:47;;;;;;;9.32;7.70;;;12.20;99.90;;;;;;5005946;28;20275;-79
2021/10/31 10:05:22;;;;;;;8.60;7.68;;;12.40;99.90;;;;;;5005238;28;20224;-78
2021/10/31 10:08:08;;;;;;;8.00;7.20;;;12.60;99.90;;;;;;5002695;28;20224;-78
2021/10/31 10:10:47;;;;;;;8.30;7.50;;;12.80;99.90;;;;;;5006752;28;20281;-79
2021/10/31 10:13:24;;;;;;;9.00;8.10;;;13.00;99.90;;;;;;5008142;28;20239;-78
2021/10/31 10:15:52;;;;;;;8.77;7.88;;;13.10;99.90;;;;;;5005666;28;20220;-77
2021/10/31 10:18:30;;;;;;;11.40;8.48;;;13.30;99.90;;;;;;5004590;28;21251;-77
2021/10/31 10:21:15;;;;;;;9.38;8.48;;;14.00;99.90;;;;;;4998724;28;20220;-78
2021/10/31 10:23:48;;;;;;;9.23;8.27;;;14.70;99.90;;;;;;5002275;28;20224;-78
2021/10/31 10:26:24;;;;;;;8.80;7.88;;;15.50;99.90;;;;;;5000254;28;20222;-77
2021/10/31 10:28:51;;;;;;;9.95;8.95;;;16.00;99.90;;;;;;5000874;28;20278;-79
2021/10/31 10:31:21;;;;;;;9.82;8.82;;;16.20;99.90;;;;;;5003680;28;20228;-76
2021/10/31 10:33:49;;;;;;;9.80;8.82;;;16.00;99.90;;;;;;5006150;28;20223;-79
2021/10/31 10:36:23;;;;;;;12.50;10.23;;;16.10;99.90;;;;;;5001499;28;20244;-79
2021/10/31 10:39:01;;;;;;;10.75;8.85;;;15.90;99.90;;;;;;5006246;28;20231;-77
2021/10/31 10:41:49;;;;;;;8.82;7.95;;;15.50;99.90;;;;;;4998188;28;20777;-77
2021/10/31 10:44:28;;;;;;;9.13;8.23;;;15.50;99.90;;;;;;4998107;28;20248;-77
2021/10/31 10:47:02;;;;;;;9.40;8.50;;;15.90;99.90;;;;;;5002215;28;20217;-77
2021/10/31 10:49:31;;;;;;;9.07;8.25;;;16.50;99.90;;;;;;5003101;28;20239;-77
2021/10/31 10:52:20;;;;;;;10.23;8.85;;;16.90;99.90;;;;;;4999031;28;20230;-77
2021/10/31 10:54:53;;;;;;;9.60;8.50;;;17.10;99.90;;;;;;4996970;28;20212;-78
2021/10/31 10:57:21;;;;;;;9.38;8.48;;;16.70;99.90;;;;;;5002405;28;20225;-77
2021/10/31 10:59:59;;;;;;;9.27;8.38;;;16.10;99.90;;;;;;5003288;28;20298;-77
2021/10/31 11:02:27;;;;;;;9.18;8.15;;;15.70;99.90;;;;;;4998399;28;20223;-77
2021/10/31 11:04:58;;;;;;;9.52;8.52;;;15.50;99.90;;;;;;4998656;28;20228;-79
2021/10/31 11:07:39;;;;;;;8.50;7.63;;;15.60;99.90;;;;;;5000129;28;20275;-77
2021/10/31 11:10:26;;;;;;;9.70;8.38;;;15.80;99.90;;;;;;5001459;28;20227;-77
2021/10/31 11:12:55;;;;;;;8.85;7.50;;;15.80;99.90;;;;;;4987661;28;20230;-76
2021/10/31 11:15:24;;;;;;;8.75;7.85;;;16.00;99.90;;;;;;5005002;28;20532;-80
2021/10/31 11:17:54;;;;;;;9.45;8.52;;;16.10;99.90;;;;;;4995629;28;20710;-80
2021/10/31 11:20:23;;;;;;;9.18;8.27;;;16.20;99.90;;;;;;4998532;28;20215;-78
2021/10/31 11:22:54;;;;;;;10.30;8.30;;;16.20;99.90;;;;;;4999463;28;20219;-77
2021/10/31 11:25:24;;;;;;;8.68;7.78;;;16.10;99.90;;;;;;4998444;28;20217;-78
2021/10/31 11:27:53;;;;;;;8.93;8.13;;;16.00;99.90;;;;;;5001211;28;20603;-80
2021/10/31 11:30:22;;;;;;;8.65;7.75;;;15.70;99.90;;;;;;5000861;28;20227;-77
2021/10/31 11:32:51;;;;;;;8.30;7.50;;;15.50;99.90;;;;;;5000717;28;20232;-78
2021/10/31 11:35:20;;;;;;;8.38;7.55;;;15.40;99.90;;;;;;5003652;28;20703;-79
2021/10/31 11:37:54;;;;;;;8.68;7.85;;;15.50;99.90;;;;;;5000876;28;20224;-79
2021/10/31 11:40:28;;;;;;;8.88;7.47;;;15.50;99.90;;;;;;5000988;28;20293;-79
2021/10/31 11:42:56;;;;;;;8.57;7.78;;;15.50;99.90;;;;;;5000198;28;20224;-78
2021/10/31 11:45:24;;;;;;;9.73;7.45;;;15.50;99.90;;;;;;5003103;28;20599;-78
2021/10/31 11:48:10;;;;;;;7.45;6.75;;;15.50;99.90;;;;;;4996862;28;20844;-77
2021/10/31 11:50:39;;;;;;;8.82;7.75;;;15.40;99.90;;;;;;4999773;28;20224;-80
2021/10/31 11:53:15;;;;;;;7.85;7.00;;;15.20;99.90;;;;;;4996220;28;20236;-78
2021/10/31 11:55:53;;;;;;;8.65;7.78;;;15.00;99.90;;;;;;5000396;28;20220;-80
2021/10/31 11:59:00;;;;;;;8.60;7.70;;;15.00;99.90;;;;;;5004964;28;20678;-80
2021/10/31 12:01:37;;;;;;;8.32;7.25;;;14.80;99.90;;;;;;5005050;28;20230;-77
2021/10/31 12:04:07;;;;;;;8.10;7.30;;;14.70;99.90;;;;;;5005962;28;20224;-78
2021/10/31 12:06:46;;;;;;;7.95;7.22;;;14.70;99.90;;;;;;5006020;28;20223;-78
2021/10/31 12:09:30;;;;;;;8.40;7.50;;;14.60;99.90;;;;;;5006528;28;20235;-77
2021/10/31 12:12:16;;;;;;;7.85;7.13;;;14.60;99.90;;;;;;5004408;28;20793;-78
2021/10/31 12:14:55;;;;;;;8.68;7.63;;;14.30;99.90;;;;;;4990269;28;20231;-77
2021/10/31 12:17:25;;;;;;;8.05;7.25;;;14.20;99.90;;;;;;4982635;28;20227;-78
2021/10/31 12:19:54;;;;;;;9.75;8.85;;;14.10;99.90;;;;;;4987459;28;20225;-79
2021/10/31 12:22:32;;;;;;;10.18;9.18;;;14.00;99.90;;;;;;4982770;28;20236;-78
2021/10/31 12:25:02;;;;;;;9.27;8.38;;;13.90;99.90;;;;;;4984822;28;20746;-78
2021/10/31 12:27:45;;;;;;;8.40;7.60;;;13.80;99.90;;;;;;4982957;28;20221;-78
2021/10/31 12:30:41;;;;;;;9.45;8.50;;;13.80;99.90;;;;;;4986759;28;20256;-78
2021/10/31 12:33:11;;;;;;;10.80;9.70;;;13.70;99.90;;;;;;4983745;28;20758;-77
2021/10/31 12:35:40;;;;;;;11.48;10.27;;;13.60;99.90;;;;;;4998670;28;20212;-77
2021/10/31 12:38:33;;;;;;;11.40;10.20;;;13.60;99.90;;;;;;4994015;28;20224;-78
2021/10/31 12:41:22;;;;;;;11.52;10.32;;;13.70;99.90;;;;;;4986021;28;20217;-77
2021/10/31 12:43:54;;;;;;;13.57;10.35;;;13.60;99.90;;;;;;5004435;28;20236;-76
2021/10/31 12:46:25;;;;;;;11.50;10.40;;;13.50;99.90;;;;;;5010689;28;20223;-77
2021/10/31 12:48:55;;;;;;;11.48;10.25;;;13.50;99.90;;;;;;5011593;28;20274;-77
2021/10/31 12:51:45;;;;;;;10.98;9.90;;;13.50;99.90;;;;;;5009075;28;20216;-77
2021/10/31 12:54:19;;;;;;;10.00;9.00;;;13.40;99.90;;;;;;5008119;28;20227;-78
2021/10/31 12:56:47;;;;;;;8.68;7.88;;;13.60;99.90;;;;;;5005921;28;20641;-78
2021/10/31 12:59:17;;;;;;;8.02;7.32;;;13.80;99.90;;;;;;5009682;28;20227;-78